Time;durP1;ratioP1;P1;durP2;ratioP2;P2;SDS_P1;SDS_P2;PMS_P1;PMS_P2;Temp;Humidity;BMP_temperature;BMP_pressure;BME280_temperature;BME280_humidity;BME280_pressure;Samples;Min_cycle;Max_cycle;Signal;HPM_P1;HPM_P2
2022/08/20 00:01:02;;;;;;;19.33;5.10;;;;;;;;;;5088050;28;20174;-68
2022/08/20 00:03:30;;;;;;;9.48;4.38;;;;;;;;;;5085188;28;20075;-68
2022/08/20 00:05:58;;;;;;;13.55;4.85;;;;;;;;;;5091258;28;20043;-68
2022/08/20 00:08:24;;;;;;;13.02;4.90;;;;;;;;;;5089512;28;20543;-68
2022/08/20 00:10:51;;;;;;;12.80;5.22;;;;;;;;;;5089788;28;20048;-67
2022/08/20 00:13:20;;;;;;;9.52;4.35;;;;;;;;;;5083293;28;20055;-68
2022/08/20 00:15:46;;;;;;;13.85;4.40;;;;;;;;;;5084374;28;20044;-67
2022/08/20 00:18:12;;;;;;;10.85;4.28;;;;;;;;;;5086622;28;20074;-68
2022/08/20 00:20:41;;;;;;;12.32;4.78;;;;;;;;;;5090191;28;20214;-68
2022/08/20 00:23:07;;;;;;;22.00;4.95;;;;;;;;;;5090899;28;20047;-68
2022/08/20 00:25:34;;;;;;;10.20;4.80;;;;;;;;;;5083660;28;20151;-67
2022/08/20 00:28:02;;;;;;;8.63;4.40;;;;;;;;;;5083902;28;20074;-67
2022/08/20 00:30:29;;;;;;;12.90;4.90;;;;;;;;;;5081360;28;20156;-67
2022/08/20 00:32:57;;;;;;;11.02;4.70;;;;;;;;;;5095332;28;20055;-67
2022/08/20 00:35:25;;;;;;;12.23;5.10;;;;;;;;;;5080286;28;20064;-67
2022/08/20 00:37:52;;;;;;;7.63;4.60;;;;;;;;;;5081977;28;20039;-68
2022/08/20 00:40:20;;;;;;;9.68;4.72;;;;;;;;;;5101618;27;20052;-67
2022/08/20 00:42:48;;;;;;;11.00;4.90;;;;;;;;;;5087041;28;20044;-67
2022/08/20 00:45:16;;;;;;;12.82;5.93;;;;;;;;;;5086898;28;20035;-67
2022/08/20 00:47:43;;;;;;;10.27;4.93;;;;;;;;;;5080323;28;20044;-67
2022/08/20 00:50:11;;;;;;;16.92;5.78;;;;;;;;;;5092685;28;20031;-68
2022/08/20 00:52:38;;;;;;;11.07;5.45;;;;;;;;;;5079466;28;20127;-68
2022/08/20 00:55:06;;;;;;;17.00;5.45;;;;;;;;;;5080091;28;20470;-67
2022/08/20 00:57:36;;;;;;;12.32;5.25;;;;;;;;;;5076751;28;20056;-68
2022/08/20 01:00:06;;;;;;;14.48;5.25;;;;;;;;;;5083105;28;20040;-68
2022/08/20 01:02:33;;;;;;;12.38;5.57;;;;;;;;;;5082639;28;20123;-68
2022/08/20 01:04:59;;;;;;;10.23;4.50;;;;;;;;;;5085543;28;20344;-68
2022/08/20 01:07:34;;;;;;;14.65;5.38;;;;;;;;;;5092445;28;20127;-67
2022/08/20 01:10:02;;;;;;;13.52;5.28;;;;;;;;;;5089356;28;20501;-68
2022/08/20 01:12:29;;;;;;;12.90;5.35;;;;;;;;;;5090605;28;20109;-68
2022/08/20 01:14:57;;;;;;;13.20;5.65;;;;;;;;;;5086005;28;20073;-68
2022/08/20 01:17:24;;;;;;;13.07;5.15;;;;;;;;;;5087069;28;20081;-68
2022/08/20 01:19:59;;;;;;;17.25;6.10;;;;;;;;;;5088948;28;20186;-68
2022/08/20 01:25:23;;;;;;;13.73;5.05;;;;;;;;;;5086981;28;20479;-68
2022/08/20 01:27:50;;;;;;;11.68;4.85;;;;;;;;;;5084197;28;20067;-67
2022/08/20 01:30:16;;;;;;;10.43;5.00;;;;;;;;;;5086033;28;20045;-67
2022/08/20 01:32:42;;;;;;;7.82;4.10;;;;;;;;;;5081239;28;20124;-67
2022/08/20 01:35:09;;;;;;;13.23;4.05;;;;;;;;;;5084431;28;20136;-67
2022/08/20 01:37:35;;;;;;;7.90;4.05;;;;;;;;;;5082722;28;20044;-67
2022/08/20 01:40:02;;;;;;;8.50;3.40;;;;;;;;;;5077681;28;20055;-68
2022/08/20 01:42:29;;;;;;;11.57;3.30;;;;;;;;;;5078415;28;20164;-68
2022/08/20 01:44:55;;;;;;;12.80;4.25;;;;;;;;;;5079580;28;20051;-67
2022/08/20 01:47:24;;;;;;;9.82;4.13;;;;;;;;;;5075530;28;20040;-67
2022/08/20 01:49:52;;;;;;;13.60;3.92;;;;;;;;;;5081165;28;20048;-68
2022/08/20 01:52:27;;;;;;;11.05;3.53;;;;;;;;;;5082993;28;20086;-67
2022/08/20 01:54:54;;;;;;;10.20;3.30;;;;;;;;;;5075483;28;20093;-67
2022/08/20 01:57:20;;;;;;;8.75;3.65;;;;;;;;;;5077092;28;20040;-67
2022/08/20 01:59:47;;;;;;;13.20;3.45;;;;;;;;;;5080228;28;20047;-67
2022/08/20 02:02:13;;;;;;;10.43;3.38;;;;;;;;;;5077931;28;20143;-68
2022/08/20 02:04:40;;;;;;;12.50;3.58;;;;;;;;;;5079540;28;20083;-67
2022/08/20 02:07:08;;;;;;;11.15;3.28;;;;;;;;;;5086012;28;20466;-67
2022/08/20 02:09:36;;;;;;;13.70;3.40;;;;;;;;;;5084309;28;20046;-67
2022/08/20 02:12:03;;;;;;;10.35;2.30;;;;;;;;;;5082962;28;20083;-68
2022/08/20 02:14:29;;;;;;;13.13;3.45;;;;;;;;;;5083221;28;20565;-67
2022/08/20 02:16:57;;;;;;;12.40;3.03;;;;;;;;;;5081072;28;20147;-67
2022/08/20 02:19:26;;;;;;;11.15;3.03;;;;;;;;;;5082402;28;20440;-67
2022/08/20 02:21:54;;;;;;;10.25;2.90;;;;;;;;;;5082222;28;20127;-67
2022/08/20 02:24:20;;;;;;;12.65;2.92;;;;;;;;;;5103670;27;20461;-68
2022/08/20 02:26:46;;;;;;;12.55;3.10;;;;;;;;;;5089316;28;22079;-67
2022/08/20 02:29:13;;;;;;;14.30;3.03;;;;;;;;;;5081737;28;20035;-67
2022/08/20 02:31:41;;;;;;;14.85;2.95;;;;;;;;;;5088244;28;20072;-68
2022/08/20 02:34:08;;;;;;;13.68;2.92;;;;;;;;;;5105047;27;20565;-67
2022/08/20 02:36:36;;;;;;;13.82;3.50;;;;;;;;;;5091183;28;20477;-67
2022/08/20 02:39:04;;;;;;;15.38;2.78;;;;;;;;;;5092206;28;20055;-67
2022/08/20 02:41:30;;;;;;;13.23;2.47;;;;;;;;;;5080801;28;20089;-67
2022/08/20 02:43:57;;;;;;;10.45;2.90;;;;;;;;;;5087044;28;20052;-67
2022/08/20 02:46:23;;;;;;;13.27;2.72;;;;;;;;;;5102239;27;20044;-67
2022/08/20 02:48:49;;;;;;;11.80;2.58;;;;;;;;;;5087134;28;20149;-67
2022/08/20 02:51:16;;;;;;;12.88;2.90;;;;;;;;;;5081957;28;20113;-67
2022/08/20 02:53:42;;;;;;;9.75;2.53;;;;;;;;;;5078368;28;21750;-67
2022/08/20 02:56:10;;;;;;;15.05;2.90;;;;;;;;;;5083501;28;20036;-67
2022/08/20 02:58:36;;;;;;;15.52;3.58;;;;;;;;;;5082510;28;21806;-68
2022/08/20 03:01:05;;;;;;;11.82;3.25;;;;;;;;;;5088134;28;20044;-67
2022/08/20 03:03:31;;;;;;;13.10;3.22;;;;;;;;;;5084407;28;20068;-67
2022/08/20 03:05:58;;;;;;;9.82;2.83;;;;;;;;;;5085343;28;20056;-67
2022/08/20 03:08:25;;;;;;;9.73;2.40;;;;;;;;;;5081173;28;20063;-67
2022/08/20 03:10:51;;;;;;;11.13;2.53;;;;;;;;;;5074673;28;20044;-67
2022/08/20 03:13:19;;;;;;;10.45;2.50;;;;;;;;;;5083084;28;20100;-68
2022/08/20 03:15:46;;;;;;;14.30;2.90;;;;;;;;;;5090315;28;20142;-68
2022/08/20 03:18:13;;;;;;;14.40;2.83;;;;;;;;;;5082598;28;20053;-67
2022/08/20 03:20:40;;;;;;;8.75;2.30;;;;;;;;;;5076649;28;20056;-67
2022/08/20 03:23:06;;;;;;;8.88;2.33;;;;;;;;;;5079038;28;20039;-67
2022/08/20 03:25:32;;;;;;;20.23;3.30;;;;;;;;;;5087444;28;20032;-67
2022/08/20 03:27:59;;;;;;;14.35;3.08;;;;;;;;;;5083925;28;20055;-67
2022/08/20 03:30:26;;;;;;;10.32;2.60;;;;;;;;;;5080768;28;20044;-67
2022/08/20 03:32:52;;;;;;;12.15;2.78;;;;;;;;;;5081918;28;20105;-67
2022/08/20 03:35:20;;;;;;;6.90;2.25;;;;;;;;;;5090677;28;20041;-67
2022/08/20 03:37:46;;;;;;;14.85;3.38;;;;;;;;;;5092852;28;20040;-68
2022/08/20 03:40:15;;;;;;;10.00;2.42;;;;;;;;;;5090276;28;20131;-67
2022/08/20 03:42:41;;;;;;;9.27;2.47;;;;;;;;;;5085143;28;20492;-67
2022/08/20 03:45:09;;;;;;;7.75;2.42;;;;;;;;;;5091778;28;20064;-67
2022/08/20 03:47:35;;;;;;;11.13;2.65;;;;;;;;;;5102198;28;20045;-67
2022/08/20 03:50:03;;;;;;;11.90;2.88;;;;;;;;;;5080357;28;20037;-67
2022/08/20 03:52:30;;;;;;;13.20;2.80;;;;;;;;;;5083713;28;20048;-68
2022/08/20 03:54:56;;;;;;;8.98;2.53;;;;;;;;;;5081064;28;20036;-67
2022/08/20 03:57:22;;;;;;;14.45;2.13;;;;;;;;;;5083922;28;20044;-67
2022/08/20 03:59:50;;;;;;;15.00;3.20;;;;;;;;;;5084598;28;20039;-67
2022/08/20 04:02:16;;;;;;;10.23;2.30;;;;;;;;;;5086826;28;20047;-67
2022/08/20 04:04:43;;;;;;;10.00;2.20;;;;;;;;;;5084815;28;20043;-67
2022/08/20 04:07:11;;;;;;;9.65;3.03;;;;;;;;;;5087945;28;20035;-67
2022/08/20 04:09:38;;;;;;;8.43;2.45;;;;;;;;;;5087916;28;20047;-67
2022/08/20 04:12:05;;;;;;;9.68;2.75;;;;;;;;;;5087218;28;20048;-67
2022/08/20 04:14:32;;;;;;;7.93;2.00;;;;;;;;;;5094098;28;20418;-67
2022/08/20 04:16:58;;;;;;;10.60;2.63;;;;;;;;;;5089486;28;20044;-67
2022/08/20 04:19:24;;;;;;;14.43;2.45;;;;;;;;;;5090226;28;21945;-67
2022/08/20 04:21:51;;;;;;;12.20;2.22;;;;;;;;;;5087910;28;20035;-67
2022/08/20 04:24:17;;;;;;;13.80;2.17;;;;;;;;;;5087099;28;20040;-67
2022/08/20 04:26:43;;;;;;;10.38;2.35;;;;;;;;;;5090997;28;20047;-67
2022/08/20 04:29:09;;;;;;;11.18;1.88;;;;;;;;;;5093646;28;20039;-67
2022/08/20 04:31:35;;;;;;;8.95;2.33;;;;;;;;;;5091961;28;20122;-67
2022/08/20 04:34:03;;;;;;;8.63;2.03;;;;;;;;;;5092633;28;20044;-67
2022/08/20 04:36:30;;;;;;;10.52;2.00;;;;;;;;;;5094982;28;20043;-68
2022/08/20 04:38:56;;;;;;;10.68;2.03;;;;;;;;;;5093411;28;20051;-67
2022/08/20 04:41:23;;;;;;;6.18;2.28;;;;;;;;;;5095953;28;20096;-67
2022/08/20 04:43:49;;;;;;;8.48;2.33;;;;;;;;;;5093290;28;20052;-68
2022/08/20 04:46:15;;;;;;;9.15;3.05;;;;;;;;;;5093395;28;20107;-67
2022/08/20 04:48:41;;;;;;;6.75;2.03;;;;;;;;;;5093832;28;20143;-67
2022/08/20 04:51:08;;;;;;;12.30;2.95;;;;;;;;;;5094113;28;20117;-68
2022/08/20 04:53:34;;;;;;;10.15;2.65;;;;;;;;;;5093310;28;20448;-67
2022/08/20 04:56:02;;;;;;;8.25;2.70;;;;;;;;;;5086879;28;20048;-67
2022/08/20 04:58:29;;;;;;;10.73;3.25;;;;;;;;;;5083064;28;20110;-67
2022/08/20 05:00:57;;;;;;;11.35;3.05;;;;;;;;;;5086392;28;20040;-67
2022/08/20 05:03:23;;;;;;;14.88;3.72;;;;;;;;;;5085311;28;20044;-67
2022/08/20 05:05:50;;;;;;;11.50;2.60;;;;;;;;;;5087807;28;20079;-67
2022/08/20 05:08:18;;;;;;;10.70;3.17;;;;;;;;;;5085698;28;20113;-67
2022/08/20 05:10:44;;;;;;;11.93;3.63;;;;;;;;;;5088061;28;20380;-68
2022/08/20 05:13:11;;;;;;;9.90;2.63;;;;;;;;;;5092083;28;20990;-67
2022/08/20 05:15:38;;;;;;;10.27;2.83;;;;;;;;;;5098520;28;20087;-67
2022/08/20 05:18:06;;;;;;;8.23;2.90;;;;;;;;;;5092004;28;20044;-68
2022/08/20 05:20:34;;;;;;;10.95;2.85;;;;;;;;;;5091336;28;20043;-68
2022/08/20 05:23:01;;;;;;;10.02;3.60;;;;;;;;;;5088359;28;20149;-67
2022/08/20 05:25:28;;;;;;;9.38;3.10;;;;;;;;;;5088728;28;20051;-67
2022/08/20 05:28:01;;;;;;;8.50;2.63;;;;;;;;;;5094769;28;20031;-67
2022/08/20 05:30:32;;;;;;;8.48;2.88;;;;;;;;;;5094221;28;20833;-66
2022/08/20 05:33:00;;;;;;;8.65;2.92;;;;;;;;;;5087470;28;20348;-67
2022/08/20 05:35:27;;;;;;;10.05;2.65;;;;;;;;;;5092680;28;20117;-67
2022/08/20 05:37:53;;;;;;;17.08;4.03;;;;;;;;;;5091355;28;20035;-67
2022/08/20 05:40:21;;;;;;;8.98;2.97;;;;;;;;;;5088522;27;20552;-67
2022/08/20 05:42:48;;;;;;;13.75;3.70;;;;;;;;;;5085199;28;20101;-67
2022/08/20 05:45:15;;;;;;;11.98;4.00;;;;;;;;;;5082599;28;20042;-67
2022/08/20 05:47:43;;;;;;;13.40;3.28;;;;;;;;;;5082158;28;20036;-67
2022/08/20 05:50:11;;;;;;;13.18;3.80;;;;;;;;;;5095367;27;20507;-67
2022/08/20 05:52:38;;;;;;;10.18;3.10;;;;;;;;;;5085970;28;20433;-67
2022/08/20 05:55:05;;;;;;;12.05;3.03;;;;;;;;;;5086356;28;20131;-67
2022/08/20 05:57:33;;;;;;;12.93;2.70;;;;;;;;;;5085313;28;20421;-67
2022/08/20 06:00:01;;;;;;;15.55;4.38;;;;;;;;;;5087496;28;20047;-67
2022/08/20 06:05:12;;;;;;;14.32;3.70;;;;;;;;;;5082295;28;20414;-67
2022/08/20 06:07:39;;;;;;;8.73;3.55;;;;;;;;;;5086217;28;20048;-67
2022/08/20 06:10:06;;;;;;;17.02;4.03;;;;;;;;;;5090254;28;20044;-67
2022/08/20 06:12:32;;;;;;;13.80;3.33;;;;;;;;;;5083835;28;20051;-67
2022/08/20 06:14:58;;;;;;;10.27;3.63;;;;;;;;;;5085492;28;20056;-67
2022/08/20 06:17:25;;;;;;;12.52;3.78;;;;;;;;;;5084103;28;20385;-67
2022/08/20 06:19:51;;;;;;;11.30;3.70;;;;;;;;;;5087107;28;20134;-67
2022/08/20 06:22:18;;;;;;;11.32;3.28;;;;;;;;;;5079878;28;20047;-67
2022/08/20 06:24:45;;;;;;;11.43;3.97;;;;;;;;;;5090684;28;20177;-67
2022/08/20 06:27:13;;;;;;;12.40;3.90;;;;;;;;;;5090702;28;20500;-67
2022/08/20 06:29:40;;;;;;;13.20;3.45;;;;;;;;;;5091773;28;20060;-67
2022/08/20 06:32:06;;;;;;;19.35;4.13;;;;;;;;;;5086032;28;20047;-67
2022/08/20 06:34:32;;;;;;;9.93;2.95;;;;;;;;;;5083338;28;20124;-67
2022/08/20 06:36:58;;;;;;;12.93;3.65;;;;;;;;;;5079943;28;20051;-67
2022/08/20 06:39:28;;;;;;;10.40;3.55;;;;;;;;;;5074280;28;20131;-67
2022/08/20 06:41:57;;;;;;;7.78;2.83;;;;;;;;;;5080275;28;20506;-65
2022/08/20 06:44:24;;;;;;;13.63;3.72;;;;;;;;;;5087510;28;20058;-65
2022/08/20 06:46:50;;;;;;;8.02;2.88;;;;;;;;;;5076812;28;20398;-68
2022/08/20 06:49:17;;;;;;;9.95;3.25;;;;;;;;;;5097194;27;20075;-67
2022/08/20 06:51:44;;;;;;;11.57;3.15;;;;;;;;;;5084367;28;20033;-67
2022/08/20 06:54:11;;;;;;;12.48;3.00;;;;;;;;;;5086493;28;20046;-67
2022/08/20 06:56:37;;;;;;;9.63;2.20;;;;;;;;;;5082718;28;20084;-67
2022/08/20 06:59:03;;;;;;;11.40;2.88;;;;;;;;;;5090130;28;20048;-67
2022/08/20 07:01:29;;;;;;;9.98;2.22;;;;;;;;;;5077650;28;20204;-67
2022/08/20 07:03:58;;;;;;;10.98;2.70;;;;;;;;;;5086773;28;20659;-67
2022/08/20 07:06:25;;;;;;;9.98;2.15;;;;;;;;;;5088707;28;20051;-67
2022/08/20 07:08:51;;;;;;;8.27;1.65;;;;;;;;;;5086149;28;20044;-67
2022/08/20 07:11:19;;;;;;;10.00;1.95;;;;;;;;;;5084830;28;20040;-67
2022/08/20 07:13:47;;;;;;;8.05;2.13;;;;;;;;;;5082479;28;20058;-68
2022/08/20 07:16:14;;;;;;;7.10;2.35;;;;;;;;;;5074494;28;20144;-67
2022/08/20 07:18:40;;;;;;;8.15;2.03;;;;;;;;;;5079064;28;20040;-67
2022/08/20 07:21:06;;;;;;;10.48;2.20;;;;;;;;;;5081076;28;20043;-67
2022/08/20 07:23:32;;;;;;;10.57;2.20;;;;;;;;;;5065014;28;20127;-67
2022/08/20 07:25:59;;;;;;;12.30;2.03;;;;;;;;;;5079047;28;20050;-67
2022/08/20 07:28:31;;;;;;;7.10;1.40;;;;;;;;;;5088151;28;20562;-67
2022/08/20 07:33:43;;;;;;;8.10;1.77;;;;;;;;;;5089056;28;20036;-67
2022/08/20 07:36:09;;;;;;;14.90;2.80;;;;;;;;;;5091048;28;20043;-67
2022/08/20 07:38:36;;;;;;;13.65;2.13;;;;;;;;;;5088369;28;20454;-67
2022/08/20 07:41:05;;;;;;;10.63;2.05;;;;;;;;;;5081771;28;20132;-67
2022/08/20 07:43:31;;;;;;;7.13;1.40;;;;;;;;;;5084809;28;21257;-67
2022/08/20 07:46:00;;;;;;;8.27;1.70;;;;;;;;;;5090022;28;20032;-79
2022/08/20 07:48:27;;;;;;;10.48;1.80;;;;;;;;;;5087255;28;20114;-67
2022/08/20 07:50:54;;;;;;;7.57;1.52;;;;;;;;;;5093321;28;20036;-67
2022/08/20 07:53:20;;;;;;;13.52;2.03;;;;;;;;;;5090850;28;20161;-67
2022/08/20 07:55:47;;;;;;;12.07;2.00;;;;;;;;;;5081270;28;20733;-67
2022/08/20 07:58:15;;;;;;;8.82;1.95;;;;;;;;;;5094001;28;20054;-67
2022/08/20 08:00:41;;;;;;;9.40;2.08;;;;;;;;;;5087575;28;20048;-67
2022/08/20 08:03:08;;;;;;;14.77;2.55;;;;;;;;;;5091593;28;20063;-67
2022/08/20 08:05:37;;;;;;;14.98;2.67;;;;;;;;;;5095554;28;20079;-83
2022/08/20 08:08:04;;;;;;;11.35;2.00;;;;;;;;;;5096957;28;20039;-68
2022/08/20 08:10:30;;;;;;;15.95;2.88;;;;;;;;;;5095567;28;20062;-68
2022/08/20 08:12:58;;;;;;;7.90;1.67;;;;;;;;;;5093409;28;20120;-67
2022/08/20 08:15:27;;;;;;;10.95;2.25;;;;;;;;;;5085945;28;21261;-68
2022/08/20 08:17:55;;;;;;;11.98;1.95;;;;;;;;;;5092050;28;20106;-67
2022/08/20 08:20:22;;;;;;;11.25;2.05;;;;;;;;;;5096301;28;20062;-67
2022/08/20 08:22:48;;;;;;;11.75;2.13;;;;;;;;;;5088745;28;20046;-68
2022/08/20 08:25:15;;;;;;;12.60;2.90;;;;;;;;;;5093588;28;20043;-67
2022/08/20 08:27:41;;;;;;;8.57;1.73;;;;;;;;;;5088317;28;20041;-67
2022/08/20 08:30:08;;;;;;;11.85;2.83;;;;;;;;;;5092952;28;20048;-68
2022/08/20 08:32:35;;;;;;;12.52;2.70;;;;;;;;;;5094274;28;20071;-67
2022/08/20 08:35:06;;;;;;;9.43;1.85;;;;;;;;;;5092302;28;20036;-66
2022/08/20 08:37:32;;;;;;;10.63;1.90;;;;;;;;;;5087690;28;20755;-66
2022/08/20 08:40:00;;;;;;;13.65;2.75;;;;;;;;;;5091822;28;20068;-67
2022/08/20 08:42:29;;;;;;;11.02;1.95;;;;;;;;;;5086761;28;20048;-66
2022/08/20 08:44:56;;;;;;;8.48;2.20;;;;;;;;;;5096238;28;20039;-67
2022/08/20 08:47:26;;;;;;;5.97;1.58;;;;;;;;;;5093576;28;20067;-67
2022/08/20 08:49:53;;;;;;;7.97;1.77;;;;;;;;;;5086427;28;20245;-67
2022/08/20 08:52:21;;;;;;;6.47;1.42;;;;;;;;;;5084361;28;20151;-67
2022/08/20 08:54:51;;;;;;;15.00;2.45;;;;;;;;;;5086726;28;20048;-67
2022/08/20 08:57:17;;;;;;;8.32;1.98;;;;;;;;;;5085509;28;20050;-67
2022/08/20 08:59:47;;;;;;;9.77;2.53;;;;;;;;;;5095158;28;20494;-67
2022/08/20 09:02:20;;;;;;;9.80;2.40;;;;;;;;;;5093052;28;20089;-66
2022/08/20 09:04:46;;;;;;;10.25;2.03;;;;;;;;;;5089770;28;20040;-67
2022/08/20 09:07:14;;;;;;;9.57;2.58;;;;;;;;;;5078991;28;20456;-67
2022/08/20 09:09:41;;;;;;;8.68;1.90;;;;;;;;;;5082296;28;20055;-67
2022/08/20 09:12:09;;;;;;;15.57;2.63;;;;;;;;;;5084437;28;20051;-67
2022/08/20 09:14:35;;;;;;;7.05;2.10;;;;;;;;;;5078423;28;21915;-68
2022/08/20 09:17:02;;;;;;;11.48;2.30;;;;;;;;;;5094530;28;20380;-66
2022/08/20 09:19:28;;;;;;;9.93;1.73;;;;;;;;;;5106622;28;20055;-66
2022/08/20 09:21:55;;;;;;;8.82;1.80;;;;;;;;;;5092552;28;20446;-66
2022/08/20 09:24:21;;;;;;;9.63;2.08;;;;;;;;;;5089557;28;20075;-66
2022/08/20 09:26:47;;;;;;;10.38;2.03;;;;;;;;;;5089514;28;20089;-67
2022/08/20 09:29:13;;;;;;;7.25;2.17;;;;;;;;;;5080403;28;20486;-67
2022/08/20 09:31:39;;;;;;;11.82;2.15;;;;;;;;;;5088586;28;20036;-67
2022/08/20 09:34:06;;;;;;;10.20;1.85;;;;;;;;;;5091405;28;20039;-67
2022/08/20 09:36:32;;;;;;;11.70;2.65;;;;;;;;;;5091563;28;20036;-67
2022/08/20 09:38:58;;;;;;;14.27;2.33;;;;;;;;;;5094721;28;20062;-67
2022/08/20 09:41:24;;;;;;;9.43;2.13;;;;;;;;;;5104609;27;20088;-67
2022/08/20 09:43:50;;;;;;;10.25;2.15;;;;;;;;;;5095184;28;20074;-68
2022/08/20 09:46:17;;;;;;;9.27;2.45;;;;;;;;;;5095006;28;20043;-66
2022/08/20 09:48:43;;;;;;;8.50;1.85;;;;;;;;;;5096391;28;20039;-67
2022/08/20 09:51:09;;;;;;;12.88;2.85;;;;;;;;;;5093418;28;20032;-67
2022/08/20 09:53:35;;;;;;;7.10;1.73;;;;;;;;;;5089456;28;20053;-67
2022/08/20 09:56:01;;;;;;;7.93;2.15;;;;;;;;;;5089776;28;20039;-66
2022/08/20 09:58:28;;;;;;;7.72;2.30;;;;;;;;;;5093438;28;20467;-67
2022/08/20 10:00:55;;;;;;;12.27;2.30;;;;;;;;;;5084842;28;20134;-66
2022/08/20 10:03:21;;;;;;;7.93;1.92;;;;;;;;;;5081606;28;20479;-67
2022/08/20 10:05:47;;;;;;;8.18;2.08;;;;;;;;;;5088658;28;20532;-66
2022/08/20 10:08:13;;;;;;;8.77;2.08;;;;;;;;;;5101473;27;20044;-67
2022/08/20 10:10:39;;;;;;;7.78;1.90;;;;;;;;;;5085437;28;20121;-66
2022/08/20 10:13:06;;;;;;;14.32;2.40;;;;;;;;;;5086954;28;20085;-68
2022/08/20 10:15:32;;;;;;;10.82;2.28;;;;;;;;;;5100633;27;20048;-66
2022/08/20 10:18:03;;;;;;;9.18;1.88;;;;;;;;;;5088418;28;20040;-66
2022/08/20 10:20:30;;;;;;;9.27;2.22;;;;;;;;;;5090725;28;20043;-66
2022/08/20 10:22:56;;;;;;;10.02;1.92;;;;;;;;;;5084317;28;20039;-66
2022/08/20 10:25:22;;;;;;;7.55;1.95;;;;;;;;;;5104224;27;20058;-66
2022/08/20 10:27:48;;;;;;;9.48;1.73;;;;;;;;;;5087067;28;20039;-67
2022/08/20 10:30:15;;;;;;;9.88;2.67;;;;;;;;;;5083130;28;20147;-67
2022/08/20 10:32:41;;;;;;;8.25;1.92;;;;;;;;;;5089796;28;20039;-67
2022/08/20 10:35:08;;;;;;;10.10;2.15;;;;;;;;;;5096390;28;20048;-67
2022/08/20 10:37:35;;;;;;;7.82;1.98;;;;;;;;;;5092123;28;20067;-67
2022/08/20 10:40:01;;;;;;;9.50;2.03;;;;;;;;;;5085741;28;20046;-67
2022/08/20 10:42:27;;;;;;;7.20;2.00;;;;;;;;;;5093302;28;20380;-67
2022/08/20 10:44:53;;;;;;;7.35;1.88;;;;;;;;;;5085802;28;20178;-67
2022/08/20 10:47:19;;;;;;;6.50;1.70;;;;;;;;;;5091128;28;20126;-67
2022/08/20 10:49:46;;;;;;;7.47;2.03;;;;;;;;;;5087152;28;20050;-67
2022/08/20 10:52:12;;;;;;;8.60;1.60;;;;;;;;;;5083394;28;20104;-67
2022/08/20 10:54:41;;;;;;;6.07;1.55;;;;;;;;;;5081602;28;20039;-67
2022/08/20 10:57:08;;;;;;;10.80;1.80;;;;;;;;;;5078750;28;20466;-68
2022/08/20 10:59:39;;;;;;;10.10;1.73;;;;;;;;;;5080729;28;20060;-67
2022/08/20 11:02:05;;;;;;;8.80;1.80;;;;;;;;;;5077528;28;20046;-67
2022/08/20 11:04:31;;;;;;;7.82;1.95;;;;;;;;;;5097370;27;20047;-68
2022/08/20 11:06:57;;;;;;;8.23;1.63;;;;;;;;;;5077921;28;20498;-67
2022/08/20 11:09:23;;;;;;;8.25;1.63;;;;;;;;;;5081929;28;20100;-67
2022/08/20 11:11:50;;;;;;;6.63;1.45;;;;;;;;;;5084861;28;20032;-67
2022/08/20 11:14:16;;;;;;;8.32;2.17;;;;;;;;;;5081652;28;20051;-68
2022/08/20 11:16:42;;;;;;;7.47;1.98;;;;;;;;;;5092544;28;20375;-68
2022/08/20 11:19:08;;;;;;;6.93;1.75;;;;;;;;;;5092562;28;20054;-67
2022/08/20 11:21:34;;;;;;;11.00;2.38;;;;;;;;;;5099296;28;20044;-67
2022/08/20 11:24:00;;;;;;;7.43;1.65;;;;;;;;;;5090351;28;20043;-70
2022/08/20 11:26:27;;;;;;;7.68;2.10;;;;;;;;;;5091491;28;20129;-70
2022/08/20 11:28:53;;;;;;;9.45;2.08;;;;;;;;;;5092577;28;20036;-70
2022/08/20 11:31:19;;;;;;;6.55;1.70;;;;;;;;;;5088625;28;20165;-69
2022/08/20 11:33:46;;;;;;;9.63;2.03;;;;;;;;;;5083231;28;20130;-70
2022/08/20 11:36:12;;;;;;;8.13;2.28;;;;;;;;;;5085809;28;20036;-70
2022/08/20 11:38:38;;;;;;;8.25;1.77;;;;;;;;;;5085499;28;20147;-70
2022/08/20 11:41:04;;;;;;;10.10;1.98;;;;;;;;;;5084672;28;20036;-70
2022/08/20 11:43:30;;;;;;;8.77;2.67;;;;;;;;;;5085070;28;20193;-70
2022/08/20 11:45:57;;;;;;;8.13;2.08;;;;;;;;;;5087027;28;20035;-70
2022/08/20 11:48:23;;;;;;;7.00;2.08;;;;;;;;;;5084985;28;20051;-70
2022/08/20 11:50:49;;;;;;;8.50;2.33;;;;;;;;;;5088759;28;20079;-70
2022/08/20 11:53:15;;;;;;;10.20;2.33;;;;;;;;;;5088483;28;20051;-70
2022/08/20 11:55:42;;;;;;;10.40;2.13;;;;;;;;;;5082854;28;20076;-69
2022/08/20 11:58:09;;;;;;;11.95;2.17;;;;;;;;;;5088714;28;20040;-70
2022/08/20 12:00:35;;;;;;;10.43;1.95;;;;;;;;;;5084661;28;20040;-70
2022/08/20 12:03:03;;;;;;;7.20;2.00;;;;;;;;;;5083587;28;20377;-70
2022/08/20 12:05:29;;;;;;;13.82;2.20;;;;;;;;;;5087876;28;20066;-70
2022/08/20 12:07:56;;;;;;;7.18;1.98;;;;;;;;;;5086590;28;20088;-70
2022/08/20 12:10:23;;;;;;;7.75;2.10;;;;;;;;;;5084691;28;20028;-70
2022/08/20 12:12:49;;;;;;;4.90;1.40;;;;;;;;;;5080951;28;20047;-70
2022/08/20 12:15:15;;;;;;;10.30;2.35;;;;;;;;;;5103121;27;20443;-70
2022/08/20 12:17:41;;;;;;;8.27;1.80;;;;;;;;;;5083988;28;20045;-70
2022/08/20 12:20:09;;;;;;;12.68;2.47;;;;;;;;;;5087385;28;20658;-69
2022/08/20 12:22:36;;;;;;;13.32;2.20;;;;;;;;;;5089862;28;20052;-70
2022/08/20 12:25:02;;;;;;;9.02;2.40;;;;;;;;;;5091727;28;20482;-70
2022/08/20 12:27:30;;;;;;;18.17;2.38;;;;;;;;;;5096437;28;20044;-70
2022/08/20 12:29:57;;;;;;;6.93;1.77;;;;;;;;;;5086937;28;20131;-69
2022/08/20 12:32:24;;;;;;;13.02;2.80;;;;;;;;;;5078355;28;20040;-69
2022/08/20 12:34:51;;;;;;;8.95;2.00;;;;;;;;;;5088230;28;20032;-70
2022/08/20 12:37:19;;;;;;;10.80;1.98;;;;;;;;;;5080742;28;20036;-69
2022/08/20 12:39:47;;;;;;;8.05;1.92;;;;;;;;;;5081639;28;20062;-69
2022/08/20 12:42:14;;;;;;;12.32;2.22;;;;;;;;;;5063582;28;20368;-69
2022/08/20 12:44:40;;;;;;;7.60;2.20;;;;;;;;;;5079606;28;20136;-69
2022/08/20 12:47:07;;;;;;;9.02;2.03;;;;;;;;;;5085573;28;20048;-69
2022/08/20 12:49:34;;;;;;;7.30;1.85;;;;;;;;;;5087852;28;20405;-69
2022/08/20 12:52:00;;;;;;;13.60;2.78;;;;;;;;;;5078382;28;20028;-70
2022/08/20 12:54:26;;;;;;;9.93;2.30;;;;;;;;;;5087699;28;20470;-70
2022/08/20 12:56:52;;;;;;;7.82;2.15;;;;;;;;;;5083362;28;20040;-70
2022/08/20 12:59:18;;;;;;;7.65;2.35;;;;;;;;;;5082951;28;20067;-70
2022/08/20 13:01:44;;;;;;;9.32;2.75;;;;;;;;;;5079939;28;20528;-70
2022/08/20 13:04:11;;;;;;;6.50;2.10;;;;;;;;;;5078179;28;20509;-70
2022/08/20 13:06:37;;;;;;;8.20;2.03;;;;;;;;;;5085691;28;20119;-70
2022/08/20 13:09:03;;;;;;;8.90;2.03;;;;;;;;;;5080744;28;20059;-70
2022/08/20 13:11:30;;;;;;;8.38;2.03;;;;;;;;;;5080190;28;20647;-70
2022/08/20 13:13:56;;;;;;;8.15;2.25;;;;;;;;;;5077860;28;20157;-70
2022/08/20 13:16:22;;;;;;;10.32;1.90;;;;;;;;;;5096529;27;20440;-70
2022/08/20 13:18:48;;;;;;;7.40;1.50;;;;;;;;;;5095383;27;20390;-70
2022/08/20 13:21:14;;;;;;;7.18;1.75;;;;;;;;;;5084200;28;20092;-70
2022/08/20 13:23:40;;;;;;;4.88;1.45;;;;;;;;;;5085011;28;20494;-71
2022/08/20 13:26:07;;;;;;;5.75;1.90;;;;;;;;;;5080828;28;20044;-70
2022/08/20 13:28:33;;;;;;;6.70;2.30;;;;;;;;;;5079080;28;20044;-70
2022/08/20 13:31:00;;;;;;;8.88;1.83;;;;;;;;;;5086726;28;20150;-70
2022/08/20 13:33:27;;;;;;;8.38;2.17;;;;;;;;;;5084029;28;20040;-70
2022/08/20 13:35:53;;;;;;;6.40;1.52;;;;;;;;;;5098913;27;20103;-70
2022/08/20 13:38:19;;;;;;;8.52;1.80;;;;;;;;;;5085701;28;20492;-69
2022/08/20 13:40:46;;;;;;;6.28;1.90;;;;;;;;;;5081690;28;20052;-69
2022/08/20 13:43:12;;;;;;;9.20;1.92;;;;;;;;;;5085794;28;20126;-70
2022/08/20 13:45:38;;;;;;;5.80;1.55;;;;;;;;;;5082087;28;20059;-70
2022/08/20 13:48:05;;;;;;;7.40;1.50;;;;;;;;;;5084127;28;20044;-70
2022/08/20 13:50:32;;;;;;;7.50;1.92;;;;;;;;;;5088569;28;20203;-70
2022/08/20 13:52:58;;;;;;;6.97;1.83;;;;;;;;;;5087150;28;20119;-69
2022/08/20 13:55:25;;;;;;;9.32;2.20;;;;;;;;;;5088832;28;20086;-69
2022/08/20 13:57:52;;;;;;;13.45;2.38;;;;;;;;;;5090406;28;20044;-69
2022/08/20 14:00:22;;;;;;;6.55;1.73;;;;;;;;;;5087506;28;20039;-69
2022/08/20 14:02:48;;;;;;;8.85;1.70;;;;;;;;;;5087713;28;20044;-69
2022/08/20 14:05:14;;;;;;;10.32;2.00;;;;;;;;;;5087294;28;20100;-69
2022/08/20 14:07:40;;;;;;;6.85;1.88;;;;;;;;;;5085485;28;20032;-69
2022/08/20 14:10:09;;;;;;;6.55;1.75;;;;;;;;;;5084245;28;20075;-69
2022/08/20 14:12:35;;;;;;;7.43;1.98;;;;;;;;;;5086417;28;20050;-70
2022/08/20 14:15:02;;;;;;;9.43;2.75;;;;;;;;;;5080582;28;20091;-71
2022/08/20 14:17:30;;;;;;;10.27;2.83;;;;;;;;;;5079355;28;20079;-71
2022/08/20 14:19:58;;;;;;;8.95;2.33;;;;;;;;;;5079735;28;20040;-71
2022/08/20 14:22:25;;;;;;;8.95;2.15;;;;;;;;;;5079744;28;20040;-71
2022/08/20 14:24:52;;;;;;;7.07;1.77;;;;;;;;;;5082064;28;20058;-71
2022/08/20 14:27:19;;;;;;;8.15;1.80;;;;;;;;;;5066478;28;20044;-71
2022/08/20 14:29:46;;;;;;;9.18;2.10;;;;;;;;;;5081164;28;20052;-71
2022/08/20 14:32:12;;;;;;;10.32;2.47;;;;;;;;;;5083530;28;20044;-71
2022/08/20 14:34:38;;;;;;;11.27;2.03;;;;;;;;;;5085136;28;20043;-71
2022/08/20 14:37:10;;;;;;;9.68;2.50;;;;;;;;;;5081286;28;21731;-71
2022/08/20 14:39:36;;;;;;;9.25;2.05;;;;;;;;;;5071061;28;20037;-70
2022/08/20 14:42:02;;;;;;;9.95;2.25;;;;;;;;;;5090541;28;20127;-71